Time;durP1;ratioP1;P1;durP2;ratioP2;P2;SDS_P1;SDS_P2;PMS_P1;PMS_P2;Temp;Humidity;BMP_temperature;BMP_pressure;BME280_temperature;BME280_humidity;BME280_pressure;Samples;Min_cycle;Max_cycle;Signal;HPM_P1;HPM_P2
2021/01/06 00:00:08;;;;;;;;;;;;;;;;;;2078432;28;7013;-66
2021/01/06 00:01:10;;;;;;;;;;;;;;;;;;2078584;28;7383;-65
2021/01/06 00:02:12;;;;;;;;;;;;;;;;;;2078261;28;8015;-63
2021/01/06 00:03:16;;;;;;;;;;;;;;;;;;2078524;28;7327;-65
2021/01/06 00:04:18;;;;;;;;;;;;;;;;;;2078516;28;7100;-67
2021/01/06 00:05:22;;;;;;;;;;;;;;;;;;2078655;28;7013;-66
2021/01/06 00:06:29;;;;;;;;;;;;;;;;;;2077993;28;8111;-65
2021/01/06 00:07:31;;;;;;;;;;;;;;;;;;2071693;28;7050;-65
2021/01/06 00:08:33;;;;;;;;;;;;;;;;;;2070349;28;7033;-65
2021/01/06 00:09:35;;;;;;;;;;;;;;;;;;2070633;28;7143;-65
2021/01/06 00:10:37;;;;;;;;;;;;;;;;;;2070566;28;8027;-65
2021/01/06 00:11:40;;;;;;;;;;;;;;;;;;2070812;28;7284;-64
2021/01/06 00:12:42;;;;;;;;;;;;;;;;;;2069964;28;7009;-66
2021/01/06 00:13:45;;;;;;;;;;;;;;;;;;2070208;28;7017;-67
2021/01/06 00:14:47;;;;;;;;;;;;;;;;;;2070400;28;7029;-66
2021/01/06 00:15:49;;;;;;;;;;;;;;;;;;2069710;28;7113;-66
2021/01/06 00:16:52;;;;;;;;;;;;;;;;;;2070260;28;7049;-66
2021/01/06 00:17:54;;;;;;;;;;;;;;;;;;2070540;28;7053;-65
2021/01/06 00:18:56;;;;;;;;;;;;;;;;;;2070094;28;7050;-64
2021/01/06 00:19:58;;;;;;;;;;;;;;;;;;2070459;28;7092;-65
2021/01/06 00:21:00;;;;;;;;;;;;;;;;;;2071023;28;7010;-65
2021/01/06 00:22:02;;;;;;;;;;;;;;;;;;2078142;28;8019;-66
2021/01/06 00:23:04;;;;;;;;;;;;;;;;;;2078281;28;7009;-65
2021/01/06 00:24:06;;;;;;;;;;;;;;;;;;2078520;28;8123;-64
2021/01/06 00:25:12;;;;;;;;;;;;;;;;;;2079082;28;7013;-65
2021/01/06 00:26:13;;;;;;;;;;;;;;;;;;2070606;28;7013;-65
2021/01/06 00:27:15;;;;;;;;;;;;;;;;;;2070652;28;7009;-64
2021/01/06 00:28:18;;;;;;;;;;;;;;;;;;2070181;28;7010;-66
2021/01/06 00:29:20;;;;;;;;;;;;;;;;;;2070122;28;7025;-64
2021/01/06 00:30:22;;;;;;;;;;;;;;;;;;2070295;28;7013;-66
2021/01/06 00:31:24;;;;;;;;;;;;;;;;;;2070222;28;7308;-65
2021/01/06 00:32:26;;;;;;;;;;;;;;;;;;2070988;28;7316;-66
2021/01/06 00:33:30;;;;;;;;;;;;;;;;;;2070372;28;7113;-65
2021/01/06 00:34:32;;;;;;;;;;;;;;;;;;2070398;28;7050;-66
2021/01/06 00:35:34;;;;;;;;;;;;;;;;;;2069375;28;7113;-66
2021/01/06 00:36:36;;;;;;;;;;;;;;;;;;2070729;28;7021;-66
2021/01/06 00:37:37;;;;;;;;;;;;;;;;;;2070256;28;7152;-67
2021/01/06 00:38:39;;;;;;;;;;;;;;;;;;2070226;28;8130;-67
2021/01/06 00:39:41;;;;;;;;;;;;;;;;;;2070230;28;7073;-63
2021/01/06 00:40:44;;;;;;;;;;;;;;;;;;2071229;28;7104;-65
2021/01/06 00:41:47;;;;;;;;;;;;;;;;;;2070676;28;7161;-65
2021/01/06 00:42:48;;;;;;;;;;;;;;;;;;2070271;28;7100;-66
2021/01/06 00:43:52;;;;;;;;;;;;;;;;;;2070295;28;7034;-66
2021/01/06 00:44:54;;;;;;;;;;;;;;;;;;2070388;28;7425;-66
2021/01/06 00:45:56;;;;;;;;;;;;;;;;;;2070057;28;7152;-66
2021/01/06 00:46:58;;;;;;;;;;;;;;;;;;2070230;28;7100;-67
2021/01/06 00:48:03;;;;;;;;;;;;;;;;;;2069963;28;7042;-63
2021/01/06 00:49:05;;;;;;;;;;;;;;;;;;2070520;28;7013;-64
2021/01/06 00:50:08;;;;;;;;;;;;;;;;;;2072219;28;7106;-65
2021/01/06 00:51:10;;;;;;;;;;;;;;;;;;2078114;28;7142;-67
2021/01/06 00:52:12;;;;;;;;;;;;;;;;;;2078107;28;7013;-66
2021/01/06 00:53:16;;;;;;;;;;;;;;;;;;2078023;28;7134;-66
2021/01/06 00:54:18;;;;;;;;;;;;;;;;;;2078292;28;7009;-66
2021/01/06 00:55:20;;;;;;;;;;;;;;;;;;2078599;28;7158;-64
2021/01/06 00:56:29;;;;;;;;;;;;;;;;;;2078816;28;7029;-65
2021/01/06 00:57:31;;;;;;;;;;;;;;;;;;2078610;28;8193;-64
2021/01/06 00:58:33;;;;;;;;;;;;;;;;;;2078934;28;7303;-65
2021/01/06 00:59:35;;;;;;;;;;;;;;;;;;2069314;28;8091;-66
2021/01/06 01:00:37;;;;;;;;;;;;;;;;;;2078552;28;7579;-66
2021/01/06 01:01:39;;;;;;;;;;;;;;;;;;2071769;28;7029;-65
2021/01/06 01:02:44;;;;;;;;;;;;;;;;;;2077827;28;7489;-65
2021/01/06 01:03:46;;;;;;;;;;;;;;;;;;2076627;28;7144;-65
2021/01/06 01:04:48;;;;;;;;;;;;;;;;;;2068906;28;7010;-67
2021/01/06 01:05:50;;;;;;;;;;;;;;;;;;2068618;28;7093;-65
2021/01/06 01:06:53;;;;;;;;;;;;;;;;;;2069819;28;7097;-66
2021/01/06 01:07:56;;;;;;;;;;;;;;;;;;2069934;28;7092;-65
2021/01/06 01:08:59;;;;;;;;;;;;;;;;;;2070106;28;7084;-67
2021/01/06 01:10:01;;;;;;;;;;;;;;;;;;2069261;28;7288;-65
2021/01/06 01:11:03;;;;;;;;;;;;;;;;;;2068709;28;7300;-66
2021/01/06 01:12:09;;;;;;;;;;;;;;;;;;2077623;28;7089;-66
2021/01/06 01:13:16;;;;;;;;;;;;;;;;;;2078980;28;7013;-65
2021/01/06 01:14:17;;;;;;;;;;;;;;;;;;2078816;28;8021;-64
2021/01/06 01:15:24;;;;;;;;;;;;;;;;;;2078540;28;8038;-65
2021/01/06 01:16:26;;;;;;;;;;;;;;;;;;2078490;28;7409;-64
2021/01/06 01:17:28;;;;;;;;;;;;;;;;;;2077745;28;7096;-64
2021/01/06 01:18:30;;;;;;;;;;;;;;;;;;2077943;28;7136;-66
2021/01/06 01:19:32;;;;;;;;;;;;;;;;;;2077910;28;7013;-63
2021/01/06 01:20:34;;;;;;;;;;;;;;;;;;2077769;28;7084;-66
2021/01/06 01:21:36;;;;;;;;;;;;;;;;;;2072292;28;7009;-66
2021/01/06 01:22:38;;;;;;;;;;;;;;;;;;2070158;28;7092;-65
2021/01/06 01:23:41;;;;;;;;;;;;;;;;;;2070502;28;7256;-67
2021/01/06 01:24:42;;;;;;;;;;;;;;;;;;2070406;28;8033;-67
2021/01/06 01:25:45;;;;;;;;;;;;;;;;;;2070074;28;8003;-65
2021/01/06 01:26:53;;;;;;;;;;;;;;;;;;2070143;28;7085;-64
2021/01/06 01:27:56;;;;;;;;;;;;;;;;;;2076857;28;7092;-65
2021/01/06 01:28:57;;;;;;;;;;;;;;;;;;2071716;28;7209;-65
2021/01/06 01:30:00;;;;;;;;;;;;;;;;;;2071495;28;7037;-67
2021/01/06 01:31:02;;;;;;;;;;;;;;;;;;2071854;28;7092;-65
2021/01/06 01:32:04;;;;;;;;;;;;;;;;;;2072188;28;7304;-67
2021/01/06 01:33:07;;;;;;;;;;;;;;;;;;2071867;28;7014;-65
2021/01/06 01:34:08;;;;;;;;;;;;;;;;;;2071505;28;8115;-66
2021/01/06 01:35:15;;;;;;;;;;;;;;;;;;2071694;28;7998;-65
2021/01/06 01:36:17;;;;;;;;;;;;;;;;;;2071717;28;7445;-66
2021/01/06 01:37:19;;;;;;;;;;;;;;;;;;2071530;28;7141;-65
2021/01/06 01:38:22;;;;;;;;;;;;;;;;;;2071660;28;7046;-64
2021/01/06 01:39:24;;;;;;;;;;;;;;;;;;2071621;28;7478;-65
2021/01/06 01:40:37;;;;;;;;;;;;;;;;;;2071038;28;7096;-66
2021/01/06 01:41:39;;;;;;;;;;;;;;;;;;2071658;28;7029;-65
2021/01/06 01:42:40;;;;;;;;;;;;;;;;;;2071014;28;7092;-64
2021/01/06 01:43:42;;;;;;;;;;;;;;;;;;2071609;28;7009;-63
2021/01/06 01:44:59;;;;;;;;;;;;;;;;;;2071404;28;7283;-66
2021/01/06 01:46:01;;;;;;;;;;;;;;;;;;2071409;28;7005;-67
2021/01/06 01:47:22;;;;;;;;;;;;;;;;;;2071484;28;7025;-64
2021/01/06 01:48:24;;;;;;;;;;;;;;;;;;2071303;28;7013;-66
2021/01/06 01:49:28;;;;;;;;;;;;;;;;;;2071307;28;7068;-66
2021/01/06 01:50:31;;;;;;;;;;;;;;;;;;2071531;28;7013;-66
2021/01/06 01:51:40;;;;;;;;;;;;;;;;;;2071784;28;7017;-63
2021/01/06 01:52:50;;;;;;;;;;;;;;;;;;2071576;28;7101;-65
2021/01/06 01:54:03;;;;;;;;;;;;;;;;;;2071410;28;7108;-65
2021/01/06 01:55:09;;;;;;;;;;;;;;;;;;2071549;28;7017;-65
2021/01/06 01:56:11;;;;;;;;;;;;;;;;;;2071749;28;7014;-66
2021/01/06 01:57:18;;;;;;;;;;;;;;;;;;2070473;28;7104;-64
2021/01/06 01:58:24;;;;;;;;;;;;;;;;;;2071651;28;7013;-66
2021/01/06 01:59:35;;;;;;;;;;;;;;;;;;2071195;28;7096;-64
2021/01/06 02:00:39;;;;;;;;;;;;;;;;;;2071335;28;7005;-64
2021/01/06 02:01:45;;;;;;;;;;;;;;;;;;2070920;28;7006;-65
2021/01/06 02:02:49;;;;;;;;;;;;;;;;;;2071652;28;7139;-65
2021/01/06 02:03:58;;;;;;;;;;;;;;;;;;2071056;28;7013;-66
2021/01/06 02:05:08;;;;;;;;;;;;;;;;;;2075108;28;7108;-66
2021/01/06 02:06:30;;;;;;;;;;;;;;;;;;2079560;28;7309;-65
2021/01/06 02:07:37;;;;;;;;;;;;;;;;;;2079015;28;7392;-63
2021/01/06 02:08:58;;;;;;;;;;;;;;;;;;2079237;28;7116;-66
2021/01/06 02:10:00;;;;;;;;;;;;;;;;;;2079706;28;7005;-65
2021/01/06 02:11:06;;;;;;;;;;;;;;;;;;2079304;28;7009;-65
2021/01/06 02:12:13;;;;;;;;;;;;;;;;;;2079294;28;7137;-66
2021/01/06 02:13:24;;;;;;;;;;;;;;;;;;2079286;28;7013;-65
2021/01/06 02:14:35;;;;;;;;;;;;;;;;;;2070503;28;8058;-65
2021/01/06 02:15:43;;;;;;;;;;;;;;;;;;2070155;28;7132;-66
2021/01/06 02:16:51;;;;;;;;;;;;;;;;;;2079321;28;7332;-66
2021/01/06 02:17:53;;;;;;;;;;;;;;;;;;2078972;28;7029;-67
2021/01/06 02:18:55;;;;;;;;;;;;;;;;;;2071666;28;7065;-64
2021/01/06 02:19:57;;;;;;;;;;;;;;;;;;2070984;28;7096;-64
2021/01/06 02:21:11;;;;;;;;;;;;;;;;;;2079032;28;7481;-66
2021/01/06 02:22:18;;;;;;;;;;;;;;;;;;2085019;28;7084;-66
2021/01/06 02:23:20;;;;;;;;;;;;;;;;;;2079445;28;7025;-66
2021/01/06 02:24:22;;;;;;;;;;;;;;;;;;2079466;28;7370;-66
2021/01/06 02:25:25;;;;;;;;;;;;;;;;;;2079530;28;7013;-65
2021/01/06 02:26:29;;;;;;;;;;;;;;;;;;2079017;28;8033;-67
2021/01/06 02:27:31;;;;;;;;;;;;;;;;;;2079756;28;7013;-63
2021/01/06 02:28:33;;;;;;;;;;;;;;;;;;2079586;28;7347;-65
2021/01/06 02:29:37;;;;;;;;;;;;;;;;;;2079105;28;7049;-63
2021/01/06 02:30:40;;;;;;;;;;;;;;;;;;2079497;28;7092;-65
2021/01/06 02:31:43;;;;;;;;;;;;;;;;;;2079094;28;7009;-66
2021/01/06 02:32:45;;;;;;;;;;;;;;;;;;2078966;28;7093;-65
2021/01/06 02:33:47;;;;;;;;;;;;;;;;;;2078937;28;7050;-66
2021/01/06 02:34:50;;;;;;;;;;;;;;;;;;2078907;28;7088;-64
2021/01/06 02:35:53;;;;;;;;;;;;;;;;;;2079115;28;8059;-66
2021/01/06 02:36:55;;;;;;;;;;;;;;;;;;2078988;28;7009;-66
2021/01/06 02:37:57;;;;;;;;;;;;;;;;;;2079834;28;7009;-66
2021/01/06 02:38:59;;;;;;;;;;;;;;;;;;2078893;28;7042;-66
2021/01/06 02:40:01;;;;;;;;;;;;;;;;;;2070244;28;8029;-65
2021/01/06 02:41:04;;;;;;;;;;;;;;;;;;2071020;28;7120;-64
2021/01/06 02:42:07;;;;;;;;;;;;;;;;;;2071355;28;7009;-66
2021/01/06 02:43:09;;;;;;;;;;;;;;;;;;2071174;28;8038;-66
2021/01/06 02:44:11;;;;;;;;;;;;;;;;;;2071330;28;7088;-65
2021/01/06 02:45:14;;;;;;;;;;;;;;;;;;2079518;28;7092;-66
2021/01/06 02:46:16;;;;;;;;;;;;;;;;;;2079469;28;7092;-66
2021/01/06 02:47:19;;;;;;;;;;;;;;;;;;2069952;28;7046;-65
2021/01/06 02:48:22;;;;;;;;;;;;;;;;;;2070241;28;7018;-65
2021/01/06 02:49:25;;;;;;;;;;;;;;;;;;2071534;28;7025;-65
2021/01/06 02:50:29;;;;;;;;;;;;;;;;;;2071395;28;7096;-67
2021/01/06 02:51:37;;;;;;;;;;;;;;;;;;2070766;28;7155;-66
2021/01/06 02:52:46;;;;;;;;;;;;;;;;;;2070866;28;8111;-65
2021/01/06 02:53:52;;;;;;;;;;;;;;;;;;2070579;28;7096;-65
2021/01/06 02:54:54;;;;;;;;;;;;;;;;;;2073324;28;8046;-65
2021/01/06 02:55:56;;;;;;;;;;;;;;;;;;2079163;28;7048;-67
2021/01/06 02:56:59;;;;;;;;;;;;;;;;;;2079807;28;7454;-65
2021/01/06 02:58:08;;;;;;;;;;;;;;;;;;2078927;28;7017;-65
2021/01/06 02:59:13;;;;;;;;;;;;;;;;;;2079321;28;7356;-64
2021/01/06 03:00:20;;;;;;;;;;;;;;;;;;2079242;28;8063;-66
2021/01/06 03:01:25;;;;;;;;;;;;;;;;;;2079596;28;7025;-67
2021/01/06 03:02:28;;;;;;;;;;;;;;;;;;2079221;28;7307;-66
2021/01/06 03:03:33;;;;;;;;;;;;;;;;;;2079023;28;7009;-64
2021/01/06 03:04:42;;;;;;;;;;;;;;;;;;2078803;28;8180;-67
2021/01/06 03:05:55;;;;;;;;;;;;;;;;;;2079114;28;7013;-64
2021/01/06 03:07:02;;;;;;;;;;;;;;;;;;2080237;28;7013;-64
2021/01/06 03:08:06;;;;;;;;;;;;;;;;;;2079386;28;7092;-65
2021/01/06 03:09:22;;;;;;;;;;;;;;;;;;2079171;28;7037;-65
2021/01/06 03:10:24;;;;;;;;;;;;;;;;;;2071310;28;7375;-67
2021/01/06 03:11:26;;;;;;;;;;;;;;;;;;2069502;28;7100;-67
2021/01/06 03:12:31;;;;;;;;;;;;;;;;;;2070642;28;7359;-67
2021/01/06 03:13:33;;;;;;;;;;;;;;;;;;2071169;28;7018;-64
2021/01/06 03:14:38;;;;;;;;;;;;;;;;;;2071075;28;7077;-67
2021/01/06 03:15:40;;;;;;;;;;;;;;;;;;2071060;28;7054;-65
2021/01/06 03:16:42;;;;;;;;;;;;;;;;;;2070092;28;7141;-66
2021/01/06 03:17:44;;;;;;;;;;;;;;;;;;2071040;28;7150;-66
2021/01/06 03:18:47;;;;;;;;;;;;;;;;;;2070820;28;7327;-64
2021/01/06 03:20:02;;;;;;;;;;;;;;;;;;2070580;28;7088;-67
2021/01/06 03:21:06;;;;;;;;;;;;;;;;;;2072466;28;8109;-66
2021/01/06 03:22:11;;;;;;;;;;;;;;;;;;2078749;28;7101;-65
2021/01/06 03:23:23;;;;;;;;;;;;;;;;;;2078802;28;8086;-65
2021/01/06 03:24:30;;;;;;;;;;;;;;;;;;2078608;28;7005;-66
2021/01/06 03:25:34;;;;;;;;;;;;;;;;;;2078526;28;7009;-66
2021/01/06 03:26:37;;;;;;;;;;;;;;;;;;2078646;28;7017;-65
2021/01/06 03:27:42;;;;;;;;;;;;;;;;;;2069767;28;7017;-65
2021/01/06 03:28:45;;;;;;;;;;;;;;;;;;2070832;28;7142;-66
2021/01/06 03:29:47;;;;;;;;;;;;;;;;;;2070826;28;7324;-65
2021/01/06 03:30:51;;;;;;;;;;;;;;;;;;2070384;28;7088;-67
2021/01/06 03:31:57;;;;;;;;;;;;;;;;;;2070787;28;7021;-66
2021/01/06 03:33:17;;;;;;;;;;;;;;;;;;2070355;28;7042;-65
2021/01/06 03:34:19;;;;;;;;;;;;;;;;;;2070648;28;7034;-66
2021/01/06 03:35:31;;;;;;;;;;;;;;;;;;2070844;28;7099;-65
2021/01/06 03:36:42;;;;;;;;;;;;;;;;;;2070667;28;7009;-64
2021/01/06 03:37:49;;;;;;;;;;;;;;;;;;2071168;28;7096;-63
2021/01/06 03:38:55;;;;;;;;;;;;;;;;;;2070266;28;7193;-66
2021/01/06 03:40:11;;;;;;;;;;;;;;;;;;2070646;28;7372;-65
2021/01/06 03:41:13;;;;;;;;;;;;;;;;;;2070864;28;7104;-66
2021/01/06 03:42:17;;;;;;;;;;;;;;;;;;2069498;28;7013;-65
2021/01/06 03:43:20;;;;;;;;;;;;;;;;;;2070873;28;7017;-66
2021/01/06 03:44:23;;;;;;;;;;;;;;;;;;2070718;28;7109;-63
2021/01/06 03:45:28;;;;;;;;;;;;;;;;;;2071246;28;7308;-66
2021/01/06 03:46:40;;;;;;;;;;;;;;;;;;2078526;28;7117;-66
2021/01/06 03:47:46;;;;;;;;;;;;;;;;;;2078232;28;7084;-66
2021/01/06 03:48:50;;;;;;;;;;;;;;;;;;2078782;28;7136;-65
2021/01/06 03:50:03;;;;;;;;;;;;;;;;;;2077966;28;7048;-66
2021/01/06 03:51:17;;;;;;;;;;;;;;;;;;2078448;28;8110;-65
2021/01/06 03:52:31;;;;;;;;;;;;;;;;;;2078310;28;7033;-67
2021/01/06 03:53:37;;;;;;;;;;;;;;;;;;2078674;28;7092;-64
2021/01/06 03:54:51;;;;;;;;;;;;;;;;;;2078802;28;8054;-64
2021/01/06 03:56:01;;;;;;;;;;;;;;;;;;2078418;28;8043;-64
2021/01/06 03:57:05;;;;;;;;;;;;;;;;;;2079153;28;7017;-66
2021/01/06 03:58:19;;;;;;;;;;;;;;;;;;2094580;28;7050;-65
2021/01/06 03:59:31;;;;;;;;;;;;;;;;;;2091103;28;7399;-67
2021/01/06 04:00:33;;;;;;;;;;;;;;;;;;2078974;28;7053;-66
2021/01/06 04:01:56;;;;;;;;;;;;;;;;;;2069573;28;7117;-64
2021/01/06 04:03:04;;;;;;;;;;;;;;;;;;2071153;28;7016;-65
2021/01/06 04:04:21;;;;;;;;;;;;;;;;;;2070346;28;7014;-67
2021/01/06 04:05:24;;;;;;;;;;;;;;;;;;2071028;28;7100;-66
2021/01/06 04:06:28;;;;;;;;;;;;;;;;;;2070983;28;7476;-67
2021/01/06 04:07:43;;;;;;;;;;;;;;;;;;2070815;28;7014;-66
2021/01/06 04:08:55;;;;;;;;;;;;;;;;;;2070358;28;7042;-65
2021/01/06 04:10:03;;;;;;;;;;;;;;;;;;2078932;28;8122;-65
2021/01/06 04:11:07;;;;;;;;;;;;;;;;;;2078346;28;7093;-65
2021/01/06 04:12:13;;;;;;;;;;;;;;;;;;2071690;28;7323;-66
2021/01/06 04:13:15;;;;;;;;;;;;;;;;;;2069910;28;7093;-63
2021/01/06 04:14:17;;;;;;;;;;;;;;;;;;2069160;28;7042;-66
2021/01/06 04:15:20;;;;;;;;;;;;;;;;;;2078326;28;7132;-65
2021/01/06 04:16:22;;;;;;;;;;;;;;;;;;2069379;28;7168;-65
2021/01/06 04:17:26;;;;;;;;;;;;;;;;;;2069976;28;7013;-65
2021/01/06 04:18:28;;;;;;;;;;;;;;;;;;2071006;28;7096;-66
2021/01/06 04:19:31;;;;;;;;;;;;;;;;;;2070467;28;7092;-65
2021/01/06 04:20:37;;;;;;;;;;;;;;;;;;2069240;28;8079;-66
2021/01/06 04:21:39;;;;;;;;;;;;;;;;;;2076148;28;7096;-64
2021/01/06 04:22:44;;;;;;;;;;;;;;;;;;2078266;28;7013;-65
2021/01/06 04:23:46;;;;;;;;;;;;;;;;;;2078595;28;7009;-64
2021/01/06 04:24:48;;;;;;;;;;;;;;;;;;2078090;28;7092;-64
2021/01/06 04:25:50;;;;;;;;;;;;;;;;;;2078280;28;8120;-64
2021/01/06 04:26:52;;;;;;;;;;;;;;;;;;2077986;28;7010;-65
2021/01/06 04:27:57;;;;;;;;;;;;;;;;;;2078117;28;7126;-67
2021/01/06 04:28:59;;;;;;;;;;;;;;;;;;2078177;28;7013;-66
2021/01/06 04:30:01;;;;;;;;;;;;;;;;;;2078414;28;7009;-65
2021/01/06 04:31:06;;;;;;;;;;;;;;;;;;2077895;28;7037;-66
2021/01/06 04:32:08;;;;;;;;;;;;;;;;;;2094460;28;7005;-64
2021/01/06 04:33:30;;;;;;;;;;;;;;;;;;2093416;28;7996;-66
2021/01/06 04:34:32;;;;;;;;;;;;;;;;;;2078303;28;7013;-65
2021/01/06 04:35:34;;;;;;;;;;;;;;;;;;2078329;28;7025;-63
2021/01/06 04:36:36;;;;;;;;;;;;;;;;;;2078367;28;7088;-65
2021/01/06 04:37:38;;;;;;;;;;;;;;;;;;2078308;28;7241;-65
2021/01/06 04:38:44;;;;;;;;;;;;;;;;;;2079115;28;7092;-66
2021/01/06 04:39:46;;;;;;;;;;;;;;;;;;2078689;28;7025;-66
2021/01/06 04:40:51;;;;;;;;;;;;;;;;;;2079078;28;7040;-66
2021/01/06 04:42:00;;;;;;;;;;;;;;;;;;2078583;28;7009;-65
2021/01/06 04:43:08;;;;;;;;;;;;;;;;;;2079246;28;7045;-67
2021/01/06 04:44:12;;;;;;;;;;;;;;;;;;2070496;28;7509;-65
2021/01/06 04:45:14;;;;;;;;;;;;;;;;;;2077321;28;7147;-67
2021/01/06 04:46:30;;;;;;;;;;;;;;;;;;2078136;28;7327;-66
2021/01/06 04:47:48;;;;;;;;;;;;;;;;;;2070474;28;8056;-66
2021/01/06 04:49:08;;;;;;;;;;;;;;;;;;2070383;28;7174;-65
2021/01/06 04:50:28;;;;;;;;;;;;;;;;;;2070051;28;7010;-66
2021/01/06 04:51:53;;;;;;;;;;;;;;;;;;2068841;28;7001;-64
2021/01/06 04:53:14;;;;;;;;;;;;;;;;;;2071072;28;7030;-66
2021/01/06 04:54:24;;;;;;;;;;;;;;;;;;2074133;28;7049;-67
2021/01/06 04:55:45;;;;;;;;;;;;;;;;;;2078418;28;7111;-67
2021/01/06 04:56:47;;;;;;;;;;;;;;;;;;2077776;28;7092;-66
2021/01/06 04:57:49;;;;;;;;;;;;;;;;;;2078201;28;7013;-66
2021/01/06 04:58:51;;;;;;;;;;;;;;;;;;2078162;28;7013;-64
2021/01/06 05:00:06;;;;;;;;;;;;;;;;;;2069484;28;7013;-64
2021/01/06 05:01:29;;;;;;;;;;;;;;;;;;2070042;28;7315;-64
2021/01/06 05:02:31;;;;;;;;;;;;;;;;;;2071483;28;7037;-65
2021/01/06 05:03:49;;;;;;;;;;;;;;;;;;2080546;28;7009;-64
2021/01/06 05:04:51;;;;;;;;;;;;;;;;;;2079496;28;7046;-65
2021/01/06 05:06:01;;;;;;;;;;;;;;;;;;2079497;28;8071;-65
2021/01/06 05:07:20;;;;;;;;;;;;;;;;;;2095188;28;7216;-66
2021/01/06 05:08:37;;;;;;;;;;;;;;;;;;2078653;28;7009;-65
2021/01/06 05:09:43;;;;;;;;;;;;;;;;;;2070375;28;8026;-65
2021/01/06 05:10:51;;;;;;;;;;;;;;;;;;2071781;28;7041;-65
2021/01/06 05:12:02;;;;;;;;;;;;;;;;;;2071833;28;7017;-64
2021/01/06 05:13:16;;;;;;;;;;;;;;;;;;2078976;28;7488;-65
2021/01/06 05:14:23;;;;;;;;;;;;;;;;;;2085996;28;7144;-67
2021/01/06 05:15:35;;;;;;;;;;;;;;;;;;2080296;28;7284;-66
2021/01/06 05:16:39;;;;;;;;;;;;;;;;;;2080885;28;7037;-67
2021/01/06 05:17:42;;;;;;;;;;;;;;;;;;2080103;28;7010;-67
2021/01/06 05:18:44;;;;;;;;;;;;;;;;;;2080219;28;7009;-64
2021/01/06 05:19:47;;;;;;;;;;;;;;;;;;2079974;28;7045;-66
2021/01/06 05:20:50;;;;;;;;;;;;;;;;;;2079950;28;7113;-67
2021/01/06 05:21:53;;;;;;;;;;;;;;;;;;2071704;28;7088;-66
2021/01/06 05:22:54;;;;;;;;;;;;;;;;;;2071707;28;7092;-66
2021/01/06 05:24:01;;;;;;;;;;;;;;;;;;2071718;28;7088;-64
2021/01/06 05:25:03;;;;;;;;;;;;;;;;;;2071638;28;7144;-66
2021/01/06 05:26:05;;;;;;;;;;;;;;;;;;2071865;28;7009;-66
2021/01/06 05:27:13;;;;;;;;;;;;;;;;;;2071497;28;7316;-65
2021/01/06 05:28:17;;;;;;;;;;;;;;;;;;2072288;28;7025;-67
2021/01/06 05:29:22;;;;;;;;;;;;;;;;;;2072031;28;7009;-65
2021/01/06 05:30:29;;;;;;;;;;;;;;;;;;2071580;28;7009;-67
2021/01/06 05:31:31;;;;;;;;;;;;;;;;;;2071704;28;7548;-65
2021/01/06 05:32:37;;;;;;;;;;;;;;;;;;2071386;28;7352;-66
2021/01/06 05:33:41;;;;;;;;;;;;;;;;;;2079680;28;7867;-64
2021/01/06 05:34:44;;;;;;;;;;;;;;;;;;2079947;28;7021;-65
2021/01/06 05:35:47;;;;;;;;;;;;;;;;;;2079808;28;7145;-65
2021/01/06 05:36:50;;;;;;;;;;;;;;;;;;2080373;28;7113;-67
2021/01/06 05:37:54;;;;;;;;;;;;;;;;;;2079659;28;7088;-65
2021/01/06 05:39:01;;;;;;;;;;;;;;;;;;2079754;28;7018;-67
2021/01/06 05:40:09;;;;;;;;;;;;;;;;;;2079799;28;7009;-65
2021/01/06 05:41:11;;;;;;;;;;;;;;;;;;2080539;28;7041;-64
2021/01/06 05:42:21;;;;;;;;;;;;;;;;;;2071128;28;7104;-64
2021/01/06 05:43:29;;;;;;;;;;;;;;;;;;2072073;28;7017;-65
2021/01/06 05:44:32;;;;;;;;;;;;;;;;;;2072139;28;8027;-65
2021/01/06 05:45:39;;;;;;;;;;;;;;;;;;2072055;28;7100;-64
2021/01/06 05:46:45;;;;;;;;;;;;;;;;;;2072146;28;7088;-67
2021/01/06 05:47:50;;;;;;;;;;;;;;;;;;2072468;28;7017;-65
2021/01/06 05:48:55;;;;;;;;;;;;;;;;;;2072331;28;7120;-66
2021/01/06 05:50:01;;;;;;;;;;;;;;;;;;2071907;28;7120;-65
2021/01/06 05:51:08;;;;;;;;;;;;;;;;;;2071591;28;7093;-67
2021/01/06 05:52:14;;;;;;;;;;;;;;;;;;2071845;28;7084;-65
2021/01/06 05:53:30;;;;;;;;;;;;;;;;;;2071544;28;7010;-64
2021/01/06 05:54:44;;;;;;;;;;;;;;;;;;2072308;28;7139;-65
2021/01/06 05:55:49;;;;;;;;;;;;;;;;;;2071710;28;7150;-65
2021/01/06 05:57:06;;;;;;;;;;;;;;;;;;2071256;28;7010;-66
2021/01/06 05:58:18;;;;;;;;;;;;;;;;;;2071794;28;7361;-67
2021/01/06 05:59:23;;;;;;;;;;;;;;;;;;2070957;28;8030;-65
2021/01/06 06:00:45;;;;;;;;;;;;;;;;;;2072213;28;7009;-64
2021/01/06 06:01:58;;;;;;;;;;;;;;;;;;2071982;28;7030;-65
2021/01/06 06:03:18;;;;;;;;;;;;;;;;;;2070573;28;7113;-65
2021/01/06 06:04:20;;;;;;;;;;;;;;;;;;2071288;28;7097;-64
2021/01/06 06:05:33;;;;;;;;;;;;;;;;;;2071352;28;7194;-67
2021/01/06 06:06:54;;;;;;;;;;;;;;;;;;2071416;28;7092;-64
2021/01/06 06:08:02;;;;;;;;;;;;;;;;;;2072568;28;7096;-64
2021/01/06 06:09:04;;;;;;;;;;;;;;;;;;2071987;28;7017;-66
2021/01/06 06:10:29;;;;;;;;;;;;;;;;;;2071645;28;7113;-66
2021/01/06 06:11:31;;;;;;;;;;;;;;;;;;2071081;28;7041;-65
2021/01/06 06:12:45;;;;;;;;;;;;;;;;;;2071694;28;7013;-66
2021/01/06 06:13:56;;;;;;;;;;;;;;;;;;2070445;28;7013;-65
2021/01/06 06:15:17;;;;;;;;;;;;;;;;;;2071931;28;8006;-67
2021/01/06 06:16:45;;;;;;;;;;;;;;;;;;2071942;28;7013;-65
2021/01/06 06:18:02;;;;;;;;;;;;;;;;;;2072292;28;8043;-67
2021/01/06 06:19:10;;;;;;;;;;;;;;;;;;2072027;28;7096;-64
2021/01/06 06:20:14;;;;;;;;;;;;;;;;;;2072086;28;7017;-66
2021/01/06 06:21:22;;;;;;;;;;;;;;;;;;2074950;28;7017;-66
2021/01/06 06:22:33;;;;;;;;;;;;;;;;;;2079578;28;7339;-64
2021/01/06 06:23:44;;;;;;;;;;;;;;;;;;2079572;28;7117;-65
2021/01/06 06:25:04;;;;;;;;;;;;;;;;;;2080017;28;7009;-66
2021/01/06 06:26:06;;;;;;;;;;;;;;;;;;2079349;28;7417;-65
2021/01/06 06:27:07;;;;;;;;;;;;;;;;;;2079306;28;7088;-65
2021/01/06 06:28:20;;;;;;;;;;;;;;;;;;2079434;28;7046;-66
2021/01/06 06:29:35;;;;;;;;;;;;;;;;;;2079010;28;7141;-65
2021/01/06 06:30:40;;;;;;;;;;;;;;;;;;2079538;28;7088;-66
2021/01/06 06:31:51;;;;;;;;;;;;;;;;;;2079396;28;7416;-67
2021/01/06 06:32:54;;;;;;;;;;;;;;;;;;2079678;28;7088;-65
2021/01/06 06:34:07;;;;;;;;;;;;;;;;;;2078814;28;7014;-67
2021/01/06 06:35:21;;;;;;;;;;;;;;;;;;2079415;28;7037;-66
2021/01/06 06:36:26;;;;;;;;;;;;;;;;;;2079191;28;7009;-63
2021/01/06 06:37:28;;;;;;;;;;;;;;;;;;2079063;28;7092;-65
2021/01/06 06:38:35;;;;;;;;;;;;;;;;;;2086617;28;7029;-65
2021/01/06 06:39:47;;;;;;;;;;;;;;;;;;2086346;28;8138;-64
2021/01/06 06:40:55;;;;;;;;;;;;;;;;;;2079179;28;7540;-65
2021/01/06 06:42:23;;;;;;;;;;;;;;;;;;2079141;28;7045;-65
2021/01/06 06:43:37;;;;;;;;;;;;;;;;;;2084812;28;7092;-65
2021/01/06 06:44:48;;;;;;;;;;;;;;;;;;2070934;28;7436;-65
2021/01/06 06:46:01;;;;;;;;;;;;;;;;;;2071730;28;7667;-66
2021/01/06 06:47:13;;;;;;;;;;;;;;;;;;2071263;28;7028;-66
2021/01/06 06:48:33;;;;;;;;;;;;;;;;;;2070971;28;7092;-65
2021/01/06 06:49:54;;;;;;;;;;;;;;;;;;2071223;28;7131;-65
2021/01/06 06:51:17;;;;;;;;;;;;;;;;;;2070674;28;7046;-65
2021/01/06 06:52:38;;;;;;;;;;;;;;;;;;2071481;28;7249;-65
2021/01/06 06:53:53;;;;;;;;;;;;;;;;;;2071684;28;7300;-64
2021/01/06 06:55:11;;;;;;;;;;;;;;;;;;2071167;28;7384;-65
2021/01/06 06:56:19;;;;;;;;;;;;;;;;;;2071532;28;7013;-65
2021/01/06 06:57:29;;;;;;;;;;;;;;;;;;2070961;28;8006;-64
2021/01/06 06:58:51;;;;;;;;;;;;;;;;;;2071039;28;7104;-67
2021/01/06 07:00:05;;;;;;;;;;;;;;;;;;2071014;28;7045;-64
2021/01/06 07:01:10;;;;;;;;;;;;;;;;;;2075868;28;7100;-64
2021/01/06 07:02:12;;;;;;;;;;;;;;;;;;2079473;28;7109;-67
2021/01/06 07:03:21;;;;;;;;;;;;;;;;;;2069890;28;7155;-66
2021/01/06 07:04:44;;;;;;;;;;;;;;;;;;2071096;28;7158;-65
2021/01/06 07:05:49;;;;;;;;;;;;;;;;;;2070942;28;7065;-66
2021/01/06 07:06:53;;;;;;;;;;;;;;;;;;2071260;28;7312;-67
2021/01/06 07:08:01;;;;;;;;;;;;;;;;;;2070875;28;7044;-65
2021/01/06 07:09:06;;;;;;;;;;;;;;;;;;2071063;28;8215;-67
2021/01/06 07:10:24;;;;;;;;;;;;;;;;;;2070568;28;7332;-65
2021/01/06 07:11:26;;;;;;;;;;;;;;;;;;2069822;28;7014;-66
2021/01/06 07:12:36;;;;;;;;;;;;;;;;;;2071066;28;7093;-65
2021/01/06 07:13:38;;;;;;;;;;;;;;;;;;2071090;28;7092;-66
2021/01/06 07:14:50;;;;;;;;;;;;;;;;;;2070951;28;7316;-64
2021/01/06 07:16:01;;;;;;;;;;;;;;;;;;2071590;28;7376;-67
2021/01/06 07:17:03;;;;;;;;;;;;;;;;;;2071551;28;7069;-64
2021/01/06 07:18:26;;;;;;;;;;;;;;;;;;2070565;28;7460;-66
2021/01/06 07:19:34;;;;;;;;;;;;;;;;;;2071309;28;7088;-66
2021/01/06 07:20:39;;;;;;;;;;;;;;;;;;2070908;28;7180;-65
2021/01/06 07:21:41;;;;;;;;;;;;;;;;;;2077305;28;7042;-65
2021/01/06 07:22:47;;;;;;;;;;;;;;;;;;2079269;28;7029;-66
2021/01/06 07:24:07;;;;;;;;;;;;;;;;;;2079171;28;7025;-66
2021/01/06 07:25:18;;;;;;;;;;;;;;;;;;2079379;28;7009;-66
2021/01/06 07:26:24;;;;;;;;;;;;;;;;;;2078770;28;7479;-66
2021/01/06 07:27:32;;;;;;;;;;;;;;;;;;2079409;28;7297;-66
2021/01/06 07:28:40;;;;;;;;;;;;;;;;;;2078316;28;7607;-64
2021/01/06 07:29:44;;;;;;;;;;;;;;;;;;2079274;28;8102;-64
2021/01/06 07:30:50;;;;;;;;;;;;;;;;;;2078964;28;7092;-67
2021/01/06 07:31:59;;;;;;;;;;;;;;;;;;2078597;28;7139;-64
2021/01/06 07:33:10;;;;;;;;;;;;;;;;;;2078388;28;8041;-66
2021/01/06 07:34:18;;;;;;;;;;;;;;;;;;2079505;28;7054;-64
2021/01/06 07:35:23;;;;;;;;;;;;;;;;;;2078576;28;7221;-66
2021/01/06 07:36:45;;;;;;;;;;;;;;;;;;2078882;28;7113;-65
2021/01/06 07:37:55;;;;;;;;;;;;;;;;;;2079048;28;7105;-66
2021/01/06 07:38:59;;;;;;;;;;;;;;;;;;2079021;28;7009;-65
2021/01/06 07:40:19;;;;;;;;;;;;;;;;;;2078650;28;7201;-66
2021/01/06 07:41:22;;;;;;;;;;;;;;;;;;2078430;28;7142;-66
2021/01/06 07:42:47;;;;;;;;;;;;;;;;;;2070011;28;7077;-64